Mentor, OH (44060)

12:24 AM EDT on September 02, 2015 (GMT -0400)
Mentorfire5 | | Change Station
CLOSE
Current Station
Personal Weather Station
Location: Mentor, OH
Elevation: 620 ft
Nearby Weather Stations

Elev 620 ft 41.70 °N, 81.34 °W | Updated 7 minutes ago

Clear
Clear
74.1 °F
Feels Like 74 °F
N
0.0
Wind Variable Wind from NW
Gusts 0.0 mph

Today
High -- | Low -- °F
--% Chance of Precip.
Yesterday
High -- | Low -- °F
Precip. -- in
6:52 AM 7:57 PM
Waning Gibbous, 84% visible
Pressure 30.10 in
Visibility 7.0 miles
Clouds Clear
Heat Index 74 °F
Dew Point 68 °F
Humidity 82%
Rainfall 0.00 in
Snow Depth Not available.
UV 0 out of 12
Pollen 10.80 out of 12
Air Quality Not available.
Flu Activity Not available.
METAR KCGF 020245Z 16005KT 7SM SKC 24/21 A3010
Pressure 30.10 in
Visibility 7.0 miles
Clouds Clear
Heat Index 74 °F
Dew Point 68 °F
Humidity 82%
Rainfall 0.00 in
Snow Depth Not available.
UV 0 out of 12
Pollen 10.80 out of 12
Air Quality Not available.
Flu Activity Not available.
METAR KCGF 020245Z 16005KT 7SM SKC 24/21 A3010

10-Day Weather Forecast

×

Almanac

Astronomy

Sep. 02, 2015 Rise Set
Actual Time
Civil Twilight
Nautical Twilight
Astronomical Twilight
Moon
Length of Visible Light
Length of Day
Tomorrow will be .
, % of the Moon is Illuminated

Today's Extremes

State Highs State Lows

Community

WunderPhotos

Upload Photos

1,851,695 photos uploaded!

WunderBlogs® & News

Nearby

Air Quality

  Air Quality AQ Index Pollutant
Not available.

Snow Depth

Station Depth Elevation

Earthquake Activity

City Distance Mag. Time & Date
Minimum magnitude displayed is 2.5.

Coastal Water Temperatures

Place Temperature

Stations

Nearby Weather Stations

Station Location Temp. Windchill Dew Point Humidity Wind Precip. Elev Updated Type